Time;durP1;ratioP1;P1;durP2;ratioP2;P2;SDS_P1;SDS_P2;PMS_P1;PMS_P2;Temp;Humidity;BMP_temperature;BMP_pressure;BME280_temperature;BME280_humidity;BME280_pressure;Samples;Min_cycle;Max_cycle;Signal;HPM_P1;HPM_P2
2022/10/12 00:00:21;;;;;;;10.63;6.00;;;9.40;99.90;;;;;;5053638;28;20067;-63
2022/10/12 00:02:47;;;;;;;14.82;7.30;;;9.40;99.90;;;;;;5053554;28;20040;-62
2022/10/12 00:05:12;;;;;;;13.02;6.18;;;9.40;99.90;;;;;;5053376;28;20040;-63
2022/10/12 00:07:38;;;;;;;11.02;6.35;;;9.40;99.90;;;;;;5051861;28;20102;-63
2022/10/12 00:10:04;;;;;;;9.65;5.78;;;9.40;99.90;;;;;;5051505;28;20517;-63
2022/10/12 00:12:29;;;;;;;12.90;6.82;;;9.40;99.90;;;;;;5052645;28;20024;-61
2022/10/12 00:14:55;;;;;;;13.20;6.50;;;9.40;99.90;;;;;;5051403;28;20481;-63
2022/10/12 00:17:20;;;;;;;9.75;5.75;;;9.40;99.90;;;;;;5052009;28;20025;-61
2022/10/12 00:19:46;;;;;;;9.07;6.07;;;9.30;99.90;;;;;;5052276;28;20098;-61
2022/10/12 00:22:11;;;;;;;11.63;6.70;;;9.30;99.90;;;;;;5052097;28;20045;-62
2022/10/12 00:24:37;;;;;;;14.43;6.30;;;9.20;99.90;;;;;;5052365;28;20039;-62
2022/10/12 00:27:03;;;;;;;12.60;7.32;;;9.20;99.90;;;;;;5051788;28;20064;-62
2022/10/12 00:29:28;;;;;;;11.63;6.95;;;9.20;99.90;;;;;;5052552;28;20036;-62
2022/10/12 00:31:54;;;;;;;11.20;6.88;;;9.10;99.90;;;;;;5053031;28;20163;-62
2022/10/12 00:34:19;;;;;;;11.63;6.68;;;9.10;99.90;;;;;;5052840;28;20102;-63
2022/10/12 00:36:45;;;;;;;14.18;6.15;;;9.10;99.90;;;;;;5052034;28;20131;-62
2022/10/12 00:39:11;;;;;;;11.32;6.63;;;9.20;99.90;;;;;;5052593;28;20037;-62
2022/10/12 00:41:40;;;;;;;13.48;6.40;;;9.20;99.90;;;;;;5051357;28;20064;-62
2022/10/12 00:44:36;;;;;;;12.07;6.28;;;9.20;99.90;;;;;;5052639;28;20106;-62
2022/10/12 00:47:12;;;;;;;11.77;6.03;;;9.20;99.90;;;;;;5052176;28;20051;-63
2022/10/12 00:49:38;;;;;;;12.20;6.47;;;9.20;99.90;;;;;;5052214;28;20090;-61
2022/10/12 00:52:08;;;;;;;8.98;6.07;;;9.20;99.90;;;;;;5052446;28;20055;-61
2022/10/12 00:54:39;;;;;;;12.80;7.10;;;9.20;99.90;;;;;;5052300;28;20470;-62
2022/10/12 00:57:08;;;;;;;14.35;7.10;;;9.20;99.90;;;;;;5051757;28;20041;-62
2022/10/12 00:59:51;;;;;;;11.13;6.53;;;9.20;99.90;;;;;;5052082;28;20355;-62
2022/10/12 01:02:18;;;;;;;12.68;6.93;;;9.20;99.90;;;;;;5052114;28;20112;-62
2022/10/12 01:04:43;;;;;;;13.93;6.90;;;9.10;99.90;;;;;;5052203;28;20129;-62
2022/10/12 01:07:09;;;;;;;8.43;6.05;;;9.20;99.90;;;;;;5051284;28;20120;-61
2022/10/12 01:09:35;;;;;;;11.55;6.68;;;9.20;99.90;;;;;;5051810;28;20057;-62
2022/10/12 01:12:03;;;;;;;9.90;6.22;;;9.10;99.90;;;;;;5051580;28;20094;-62
2022/10/12 01:14:29;;;;;;;13.30;6.95;;;9.10;99.90;;;;;;5051610;28;20041;-62
2022/10/12 01:17:22;;;;;;;12.95;7.05;;;9.10;99.90;;;;;;5050998;28;20469;-62
2022/10/12 01:19:53;;;;;;;12.88;7.03;;;9.00;99.90;;;;;;5041599;28;20036;-61
2022/10/12 01:22:20;;;;;;;12.98;6.95;;;9.00;99.90;;;;;;5051953;28;20123;-61
2022/10/12 01:25:08;;;;;;;12.48;6.55;;;9.00;99.90;;;;;;5051649;28;20119;-62
2022/10/12 01:27:59;;;;;;;14.48;6.40;;;9.00;99.90;;;;;;5051013;28;20040;-64
2022/10/12 01:30:29;;;;;;;10.80;6.25;;;9.00;99.90;;;;;;5051554;28;20494;-63
2022/10/12 01:33:24;;;;;;;11.48;6.30;;;9.00;99.90;;;;;;5050531;28;20047;-63
2022/10/12 01:36:14;;;;;;;13.30;6.82;;;9.10;99.90;;;;;;5050577;28;20033;-62
2022/10/12 01:38:44;;;;;;;12.95;6.50;;;9.00;99.90;;;;;;5038759;28;20076;-62
2022/10/12 01:41:16;;;;;;;14.13;5.97;;;9.00;99.90;;;;;;5051446;28;20091;-62
2022/10/12 01:43:43;;;;;;;12.68;6.18;;;9.10;99.90;;;;;;5051611;28;20043;-63
2022/10/12 01:46:12;;;;;;;13.60;6.68;;;9.10;99.90;;;;;;5049102;28;20124;-63
2022/10/12 01:48:38;;;;;;;12.70;5.88;;;9.00;99.90;;;;;;5050235;28;20036;-62
2022/10/12 01:51:04;;;;;;;12.90;6.00;;;9.00;99.90;;;;;;5051616;28;20111;-63
2022/10/12 01:54:00;;;;;;;12.23;6.10;;;9.00;99.90;;;;;;5051129;28;20056;-63
2022/10/12 01:56:55;;;;;;;11.00;5.38;;;9.00;99.90;;;;;;5050986;28;20037;-62
2022/10/12 01:59:30;;;;;;;13.40;5.72;;;9.00;99.90;;;;;;5040915;28;20099;-63
2022/10/12 02:02:11;;;;;;;10.90;5.50;;;9.00;99.90;;;;;;5050193;28;20071;-62
2022/10/12 02:04:52;;;;;;;12.77;5.55;;;9.10;99.90;;;;;;5051374;28;20055;-63
2022/10/12 02:07:36;;;;;;;16.65;5.90;;;9.10;99.90;;;;;;5050729;28;20174;-63
2022/10/12 02:10:06;;;;;;;11.83;6.23;;;9.10;99.90;;;;;;5051438;28;20052;-63
2022/10/12 02:12:33;;;;;;;10.30;5.35;;;9.10;99.90;;;;;;5050267;28;20089;-63
2022/10/12 02:15:03;;;;;;;13.65;5.65;;;9.10;99.90;;;;;;5049461;28;20108;-62
2022/10/12 02:17:30;;;;;;;12.18;6.25;;;9.10;99.90;;;;;;5048462;28;20095;-62
2022/10/12 02:20:00;;;;;;;11.65;5.07;;;9.10;99.90;;;;;;5051258;28;20068;-62
2022/10/12 02:22:33;;;;;;;12.00;5.10;;;9.20;99.90;;;;;;5049673;28;20029;-63
2022/10/12 02:25:00;;;;;;;15.50;5.25;;;9.20;99.90;;;;;;5049884;28;20080;-63
2022/10/12 02:27:26;;;;;;;13.07;5.10;;;9.20;99.90;;;;;;5049148;28;20101;-63
2022/10/12 02:29:52;;;;;;;14.02;5.35;;;9.20;99.90;;;;;;5050881;28;20120;-63
2022/10/12 02:33:02;;;;;;;13.38;5.60;;;9.20;99.90;;;;;;5050766;28;20385;-63
2022/10/12 02:35:40;;;;;;;10.68;5.35;;;9.20;99.90;;;;;;5050788;28;20037;-62
2022/10/12 02:38:10;;;;;;;11.35;5.43;;;9.10;99.90;;;;;;5050788;28;20068;-63
2022/10/12 02:41:04;;;;;;;12.30;5.72;;;9.10;99.90;;;;;;5050674;28;20057;-63
2022/10/12 02:43:33;;;;;;;13.30;5.40;;;9.00;99.90;;;;;;5048694;28;20049;-63
2022/10/12 02:46:01;;;;;;;11.55;5.97;;;9.00;99.90;;;;;;5050428;28;20413;-64
2022/10/12 02:48:28;;;;;;;13.00;5.43;;;8.90;99.90;;;;;;5050482;28;20033;-63
2022/10/12 02:50:56;;;;;;;11.98;4.90;;;8.90;99.90;;;;;;5050902;28;20044;-64
2022/10/12 02:53:23;;;;;;;14.27;5.63;;;8.90;99.90;;;;;;5050726;28;20485;-63
2022/10/12 02:55:52;;;;;;;12.38;5.97;;;8.80;99.90;;;;;;5050783;28;20179;-62
2022/10/12 02:58:18;;;;;;;12.55;5.50;;;8.70;99.90;;;;;;5050371;28;20037;-63
2022/10/12 03:00:43;;;;;;;14.40;5.75;;;8.70;99.90;;;;;;5050365;28;20025;-64
2022/10/12 03:03:09;;;;;;;11.95;5.72;;;8.70;99.90;;;;;;5049395;28;20043;-62
2022/10/12 03:05:35;;;;;;;12.90;5.55;;;8.60;99.90;;;;;;5050247;28;20075;-62
2022/10/12 03:08:00;;;;;;;11.70;4.95;;;8.50;99.90;;;;;;5050174;28;20041;-62
2022/10/12 03:10:26;;;;;;;13.98;5.65;;;8.50;99.90;;;;;;5050212;28;20029;-63
2022/10/12 03:12:53;;;;;;;11.40;5.20;;;8.40;99.90;;;;;;5050396;28;20442;-63
2022/10/12 03:15:18;;;;;;;9.52;5.20;;;8.40;99.90;;;;;;5049966;28;20064;-62
2022/10/12 03:17:44;;;;;;;13.70;5.07;;;8.40;99.90;;;;;;5050268;28;20028;-63
2022/10/12 03:20:10;;;;;;;12.55;5.97;;;8.40;99.90;;;;;;5048880;28;20088;-62
2022/10/12 03:22:36;;;;;;;13.85;5.95;;;8.30;99.90;;;;;;5049419;28;20473;-62
2022/10/12 03:25:01;;;;;;;14.00;5.60;;;8.30;99.90;;;;;;5051048;28;20037;-62
2022/10/12 03:27:27;;;;;;;14.65;5.78;;;8.40;99.90;;;;;;5053268;28;20554;-62
2022/10/12 03:29:52;;;;;;;12.15;6.10;;;8.20;99.90;;;;;;5053942;28;20041;-62
2022/10/12 03:32:18;;;;;;;13.25;5.45;;;8.20;99.90;;;;;;5054105;28;20383;-63
2022/10/12 03:34:44;;;;;;;14.07;6.00;;;8.20;99.90;;;;;;5053612;28;20154;-63
2022/10/12 03:37:09;;;;;;;11.45;5.40;;;8.10;99.90;;;;;;5053198;28;20051;-62
2022/10/12 03:39:35;;;;;;;13.48;5.70;;;8.10;99.90;;;;;;5053671;28;20438;-63
2022/10/12 03:42:01;;;;;;;13.68;6.03;;;8.10;99.90;;;;;;5053665;28;20077;-63
2022/10/12 03:44:26;;;;;;;12.70;5.75;;;8.00;99.90;;;;;;5053709;28;20036;-63
2022/10/12 03:46:52;;;;;;;13.70;5.10;;;8.00;99.90;;;;;;5052060;28;20029;-62
2022/10/12 03:49:17;;;;;;;15.55;5.30;;;8.00;99.90;;;;;;5053523;28;20118;-63
2022/10/12 03:51:43;;;;;;;13.65;6.07;;;8.00;99.90;;;;;;5052842;28;20037;-62
2022/10/12 03:54:09;;;;;;;13.95;5.57;;;8.00;99.90;;;;;;5052848;28;20099;-62
2022/10/12 03:56:35;;;;;;;13.38;5.63;;;8.00;99.90;;;;;;5052159;28;20064;-63
2022/10/12 03:59:00;;;;;;;13.00;5.63;;;8.00;99.90;;;;;;5051770;28;20041;-62
2022/10/12 04:01:26;;;;;;;11.23;5.35;;;8.00;99.90;;;;;;5052897;28;20051;-63
2022/10/12 04:03:51;;;;;;;12.75;5.88;;;8.00;99.90;;;;;;5053598;28;20070;-63
2022/10/12 04:06:17;;;;;;;12.40;5.93;;;8.00;99.90;;;;;;5052407;28;20048;-62
2022/10/12 04:08:42;;;;;;;13.48;6.00;;;8.00;99.90;;;;;;5052604;28;20053;-62
2022/10/12 04:11:08;;;;;;;13.70;5.32;;;8.00;99.90;;;;;;5051557;28;20112;-63
2022/10/12 04:13:34;;;;;;;13.20;5.78;;;8.00;99.90;;;;;;5052466;28;20106;-63
2022/10/12 04:16:04;;;;;;;10.88;5.43;;;8.00;99.90;;;;;;5051507;28;20044;-62
2022/10/12 04:18:30;;;;;;;11.55;5.22;;;8.00;99.90;;;;;;5052085;28;20041;-62
2022/10/12 04:20:56;;;;;;;14.68;6.00;;;8.00;99.90;;;;;;5053115;28;20045;-62
2022/10/12 04:23:21;;;;;;;14.85;5.90;;;8.00;99.90;;;;;;5052829;28;20052;-62
2022/10/12 04:25:47;;;;;;;14.25;6.13;;;8.00;99.90;;;;;;5052487;28;20139;-62
2022/10/12 04:28:12;;;;;;;13.27;5.70;;;7.90;99.90;;;;;;5052746;28;20037;-62
2022/10/12 04:30:38;;;;;;;13.15;5.40;;;7.80;99.90;;;;;;5052865;28;20478;-62
2022/10/12 04:33:04;;;;;;;13.60;5.03;;;7.90;99.90;;;;;;5052022;28;20041;-62
2022/10/12 04:35:30;;;;;;;14.82;5.40;;;7.80;99.90;;;;;;5052232;28;20115;-62
2022/10/12 04:37:56;;;;;;;12.93;5.38;;;7.80;99.90;;;;;;5050594;28;20373;-62
2022/10/12 04:40:21;;;;;;;12.88;5.05;;;7.70;99.90;;;;;;5052322;28;20060;-66
2022/10/12 04:42:47;;;;;;;12.88;5.53;;;7.80;99.90;;;;;;5052505;28;20131;-62
2022/10/12 04:45:13;;;;;;;12.93;5.60;;;7.70;99.90;;;;;;5050064;28;20045;-63
2022/10/12 04:47:39;;;;;;;12.13;5.05;;;7.70;99.90;;;;;;5050564;28;20402;-62
2022/10/12 04:50:05;;;;;;;12.48;4.63;;;7.70;99.90;;;;;;5050961;28;20379;-61
2022/10/12 04:52:31;;;;;;;13.40;6.22;;;7.70;99.90;;;;;;5050901;28;20025;-63
2022/10/12 04:54:56;;;;;;;10.88;4.78;;;7.70;99.90;;;;;;5051265;28;20431;-62
2022/10/12 04:57:22;;;;;;;17.08;5.55;;;7.70;99.90;;;;;;5050745;28;20048;-62
2022/10/12 04:59:47;;;;;;;14.50;5.88;;;7.60;99.90;;;;;;5050181;28;20047;-62
2022/10/12 05:02:13;;;;;;;15.52;6.05;;;7.60;99.90;;;;;;5051123;28;20051;-62
2022/10/12 05:04:39;;;;;;;14.45;5.78;;;7.60;99.90;;;;;;5051444;28;20677;-63
2022/10/12 05:07:04;;;;;;;10.80;5.70;;;7.60;99.90;;;;;;5049411;28;20045;-62
2022/10/12 05:09:30;;;;;;;12.60;5.30;;;7.50;99.90;;;;;;5051410;28;20076;-63
2022/10/12 05:11:55;;;;;;;12.93;5.72;;;7.50;99.90;;;;;;5050554;28;20493;-62
2022/10/12 05:14:21;;;;;;;12.88;6.07;;;7.50;99.90;;;;;;5050926;28;20107;-63
2022/10/12 05:16:46;;;;;;;13.55;5.88;;;7.40;99.90;;;;;;5050729;28;20029;-62
2022/10/12 05:19:12;;;;;;;18.50;6.38;;;7.40;99.90;;;;;;5051476;28;20429;-62
2022/10/12 05:21:39;;;;;;;12.23;5.35;;;7.40;99.90;;;;;;5051573;28;20437;-62
2022/10/12 05:24:05;;;;;;;11.30;5.40;;;7.40;99.90;;;;;;5051097;28;20409;-63
2022/10/12 05:26:31;;;;;;;12.82;5.93;;;7.30;99.90;;;;;;5051305;28;20045;-61
2022/10/12 05:28:57;;;;;;;11.00;5.55;;;7.30;99.90;;;;;;5050658;28;20047;-61
2022/10/12 05:31:22;;;;;;;13.32;6.28;;;7.30;99.90;;;;;;5051540;28;20064;-61
2022/10/12 05:33:48;;;;;;;12.27;6.00;;;7.30;99.90;;;;;;5052216;28;20430;-62
2022/10/12 05:36:13;;;;;;;13.75;6.45;;;7.30;99.90;;;;;;5050194;28;20040;-62
2022/10/12 05:38:39;;;;;;;14.32;6.25;;;7.20;99.90;;;;;;5051511;28;20029;-62
2022/10/12 05:41:05;;;;;;;13.63;6.30;;;7.20;99.90;;;;;;5050784;28;20488;-64
2022/10/12 05:43:30;;;;;;;12.30;6.40;;;7.20;99.90;;;;;;5049361;28;20084;-62
2022/10/12 05:45:56;;;;;;;13.57;6.28;;;7.20;99.90;;;;;;5049902;28;20048;-63
2022/10/12 05:48:22;;;;;;;11.52;6.28;;;7.10;99.90;;;;;;5048975;28;20078;-63
2022/10/12 05:50:52;;;;;;;12.93;5.70;;;7.10;99.90;;;;;;5051103;28;20033;-63
2022/10/12 05:53:18;;;;;;;12.63;6.15;;;7.10;99.90;;;;;;5050912;28;20080;-62
2022/10/12 05:55:57;;;;;;;18.90;6.95;;;7.00;99.90;;;;;;5051545;28;20077;-62
2022/10/12 05:58:25;;;;;;;11.73;6.43;;;7.00;99.90;;;;;;5050861;28;20041;-63
2022/10/12 06:00:50;;;;;;;16.65;6.55;;;7.00;99.90;;;;;;5049886;28;20178;-63
2022/10/12 06:03:16;;;;;;;11.32;6.30;;;7.00;99.90;;;;;;5048772;28;20202;-62
2022/10/12 06:05:42;;;;;;;12.43;5.88;;;6.90;99.90;;;;;;5048263;28;20063;-64
2022/10/12 06:08:09;;;;;;;12.73;5.88;;;6.90;99.90;;;;;;5048834;28;20083;-62
2022/10/12 06:10:35;;;;;;;16.70;6.88;;;6.90;99.90;;;;;;5049676;28;20119;-63
2022/10/12 06:13:01;;;;;;;16.02;6.53;;;6.90;99.90;;;;;;5050583;28;20095;-65
2022/10/12 06:15:27;;;;;;;17.05;6.25;;;6.90;99.90;;;;;;5033322;28;20470;-62
2022/10/12 06:17:53;;;;;;;18.60;6.65;;;6.90;99.90;;;;;;5050585;28;20354;-64
2022/10/12 06:20:18;;;;;;;12.00;5.85;;;6.90;99.90;;;;;;5049933;28;20036;-62
2022/10/12 06:22:44;;;;;;;17.45;6.85;;;6.90;99.90;;;;;;5050257;28;20084;-62
2022/10/12 06:25:10;;;;;;;14.07;6.20;;;6.90;99.90;;;;;;5050811;28;20463;-63
2022/10/12 06:27:35;;;;;;;14.55;6.90;;;6.90;99.90;;;;;;5048984;28;20076;-62
2022/10/12 06:30:01;;;;;;;14.57;6.93;;;6.90;99.90;;;;;;5049550;28;20032;-62
2022/10/12 06:32:27;;;;;;;14.23;6.72;;;7.00;99.90;;;;;;5049985;28;20109;-63
2022/10/12 06:34:52;;;;;;;15.02;7.50;;;7.00;99.90;;;;;;5050315;28;20742;-63
2022/10/12 06:37:18;;;;;;;11.02;6.13;;;7.00;99.90;;;;;;5050044;28;20051;-62
2022/10/12 06:39:43;;;;;;;11.50;6.57;;;7.10;99.90;;;;;;5049111;28;20038;-62
2022/10/12 06:42:10;;;;;;;14.40;7.38;;;7.10;99.90;;;;;;5050223;28;20098;-63
2022/10/12 06:44:35;;;;;;;13.00;7.10;;;7.20;99.90;;;;;;5049865;28;20053;-63
2022/10/12 06:47:01;;;;;;;17.33;7.55;;;7.30;99.90;;;;;;5049690;28;20037;-62
2022/10/12 06:49:26;;;;;;;16.20;7.80;;;7.40;99.90;;;;;;5050745;28;20059;-63
2022/10/12 06:51:52;;;;;;;13.60;8.00;;;7.50;99.90;;;;;;5050717;28;20111;-62
2022/10/12 06:54:18;;;;;;;16.30;8.35;;;7.60;99.90;;;;;;5049259;28;20589;-63
2022/10/12 06:56:43;;;;;;;17.20;9.05;;;7.70;99.90;;;;;;5049273;28;20346;-62
2022/10/12 06:59:11;;;;;;;15.02;8.25;;;7.90;99.90;;;;;;5051552;28;20049;-63
2022/10/12 07:01:37;;;;;;;16.10;9.10;;;8.00;99.90;;;;;;5054493;28;20029;-63
2022/10/12 07:04:03;;;;;;;15.15;8.38;;;8.20;99.90;;;;;;5053341;28;20063;-63
2022/10/12 07:06:29;;;;;;;16.30;8.35;;;8.30;99.90;;;;;;5054226;28;20461;-63
2022/10/12 07:08:54;;;;;;;16.75;8.90;;;8.40;99.90;;;;;;5053035;28;20517;-62
2022/10/12 07:11:20;;;;;;;13.20;8.40;;;8.50;99.90;;;;;;5054607;28;20033;-62
2022/10/12 07:13:46;;;;;;;13.27;8.32;;;8.50;99.90;;;;;;5052652;28;20029;-62
2022/10/12 07:16:11;;;;;;;16.70;8.75;;;8.50;99.90;;;;;;5054600;28;20036;-63
2022/10/12 07:18:38;;;;;;;13.95;8.15;;;8.50;99.90;;;;;;5054163;28;20088;-62
2022/10/12 07:21:04;;;;;;;12.48;8.80;;;8.50;99.90;;;;;;5054463;28;20107;-63
2022/10/12 07:23:31;;;;;;;16.63;9.55;;;8.50;99.90;;;;;;5053915;28;20037;-62
2022/10/12 07:25:57;;;;;;;14.73;8.65;;;8.50;99.90;;;;;;5054398;28;20476;-62
2022/10/12 07:28:24;;;;;;;18.40;8.88;;;8.50;99.90;;;;;;5053971;28;20044;-62
2022/10/12 07:30:50;;;;;;;15.10;9.73;;;8.50;99.90;;;;;;5054449;28;20090;-63
2022/10/12 07:33:15;;;;;;;15.27;8.88;;;8.50;99.90;;;;;;5053974;28;20045;-62
2022/10/12 07:35:41;;;;;;;14.45;8.43;;;8.50;99.90;;;;;;5036246;28;20052;-62
2022/10/12 07:38:06;;;;;;;19.98;9.70;;;8.40;99.90;;;;;;5052564;28;20503;-62
2022/10/12 07:40:32;;;;;;;18.17;9.25;;;8.40;99.90;;;;;;5053657;28;20060;-63
2022/10/12 07:42:58;;;;;;;15.68;9.10;;;8.30;99.90;;;;;;5053803;28;20343;-62
2022/10/12 07:45:27;;;;;;;17.10;9.55;;;8.30;99.90;;;;;;5053729;28;20490;-62
2022/10/12 07:47:53;;;;;;;16.02;9.15;;;8.30;99.90;;;;;;5050991;28;20045;-63
2022/10/12 07:50:19;;;;;;;14.90;9.82;;;8.30;99.90;;;;;;5053202;28;20393;-63
2022/10/12 07:52:44;;;;;;;16.33;9.93;;;8.30;99.90;;;;;;5052078;28;20033;-62
2022/10/12 07:55:10;;;;;;;14.93;8.63;;;8.30;99.90;;;;;;5053727;28;20047;-63
2022/10/12 07:57:37;;;;;;;16.17;9.35;;;8.30;99.90;;;;;;5052341;28;20517;-62
2022/10/12 08:00:03;;;;;;;17.80;9.18;;;8.30;99.90;;;;;;5053636;28;20049;-63
2022/10/12 08:02:29;;;;;;;17.90;9.05;;;8.40;99.90;;;;;;5052392;28;20068;-62
2022/10/12 08:04:55;;;;;;;15.95;8.88;;;8.50;99.90;;;;;;5053374;28;20439;-62
2022/10/12 08:07:21;;;;;;;12.38;8.48;;;8.50;99.90;;;;;;5052156;28;20518;-62
2022/10/12 08:09:49;;;;;;;14.43;8.90;;;8.50;99.90;;;;;;5052192;28;20136;-62
2022/10/12 08:12:15;;;;;;;18.48;8.98;;;8.60;99.90;;;;;;5052470;28;20761;-63
2022/10/12 08:14:40;;;;;;;15.43;8.38;;;8.70;99.90;;;;;;5052292;28;20120;-62
2022/10/12 08:17:06;;;;;;;14.70;8.77;;;8.80;99.90;;;;;;5053298;28;20037;-63
2022/10/12 08:19:34;;;;;;;14.52;8.18;;;9.00;99.90;;;;;;5053547;28;20047;-63
2022/10/12 08:21:59;;;;;;;14.25;8.93;;;9.20;99.90;;;;;;5051931;28;20047;-63
2022/10/12 08:24:25;;;;;;;16.85;8.57;;;9.40;99.90;;;;;;5052832;28;20033;-62
2022/10/12 08:26:50;;;;;;;11.45;7.65;;;9.60;99.90;;;;;;5053210;28;20044;-62
2022/10/12 08:29:16;;;;;;;13.15;8.75;;;9.80;99.90;;;;;;5051725;28;20119;-64
2022/10/12 08:31:41;;;;;;;13.18;8.60;;;10.00;99.90;;;;;;5051655;28;20033;-62
2022/10/12 08:34:07;;;;;;;14.27;7.78;;;10.10;99.90;;;;;;5053233;28;20033;-63
2022/10/12 08:36:33;;;;;;;18.23;8.43;;;10.20;99.90;;;;;;5052748;28;20397;-64
2022/10/12 08:38:58;;;;;;;13.25;7.60;;;10.40;99.90;;;;;;5051700;28;20049;-63
2022/10/12 08:41:52;;;;;;;15.43;7.80;;;10.50;99.90;;;;;;5051994;28;20064;-63
2022/10/12 08:44:20;;;;;;;11.38;6.38;;;10.70;99.90;;;;;;5042757;28;20056;-63
2022/10/12 08:46:47;;;;;;;14.13;7.05;;;10.90;99.90;;;;;;5051240;28;20417;-63
2022/10/12 08:49:23;;;;;;;15.75;6.90;;;11.00;99.90;;;;;;5034839;28;20089;-63
2022/10/12 08:51:54;;;;;;;15.07;6.88;;;11.20;99.90;;;;;;5052619;28;20036;-63
2022/10/12 08:54:24;;;;;;;11.77;6.40;;;11.40;99.90;;;;;;5052537;28;20037;-63
2022/10/12 08:56:53;;;;;;;11.55;5.65;;;11.50;99.90;;;;;;5052649;28;20048;-63
2022/10/12 08:59:18;;;;;;;12.45;6.28;;;11.60;99.90;;;;;;5052606;28;20037;-63
2022/10/12 09:02:21;;;;;;;12.40;6.30;;;11.70;99.90;;;;;;5052152;28;20524;-63
2022/10/12 09:04:59;;;;;;;12.40;6.50;;;11.80;99.90;;;;;;5043208;28;20047;-63
2022/10/12 09:07:29;;;;;;;13.52;5.90;;;12.00;99.90;;;;;;5050857;28;20451;-64
2022/10/12 09:10:22;;;;;;;12.45;5.95;;;12.10;99.90;;;;;;5052334;28;20040;-64
2022/10/12 09:13:17;;;;;;;9.15;5.45;;;12.20;99.90;;;;;;5052133;28;20373;-63
2022/10/12 09:16:01;;;;;;;10.38;5.75;;;12.30;99.90;;;;;;5052182;28;20044;-62
2022/10/12 09:18:42;;;;;;;12.02;5.88;;;12.30;99.90;;;;;;5048402;28;20076;-63
2022/10/12 09:21:15;;;;;;;12.15;5.90;;;12.40;99.90;;;;;;5050795;28;20049;-63
2022/10/12 09:23:43;;;;;;;11.60;6.03;;;12.60;99.90;;;;;;5050273;28;20106;-63
2022/10/12 09:26:20;;;;;;;11.30;5.90;;;12.60;99.90;;;;;;5051947;28;20280;-63
2022/10/12 09:28:56;;;;;;;14.00;5.80;;;12.80;99.90;;;;;;5051587;28;20040;-63
2022/10/12 09:31:57;;;;;;;8.65;5.45;;;12.90;99.90;;;;;;5051767;28;20105;-63
2022/10/12 09:34:23;;;;;;;13.93;5.50;;;13.00;99.90;;;;;;5051815;28;20063;-62
2022/10/12 09:36:49;;;;;;;13.43;6.03;;;13.00;99.90;;;;;;5051652;28;20119;-63
2022/10/12 09:39:36;;;;;;;12.38;6.28;;;13.00;99.90;;;;;;5051984;28;20045;-63
2022/10/12 09:42:03;;;;;;;12.85;5.63;;;13.10;99.90;;;;;;5038210;28;20116;-64
2022/10/12 09:44:39;;;;;;;14.13;5.28;;;13.10;99.90;;;;;;5051505;28;20041;-62
2022/10/12 09:47:20;;;;;;;13.40;5.45;;;13.20;99.90;;;;;;5037808;28;20116;-62
2022/10/12 09:49:50;;;;;;;12.18;5.15;;;13.30;99.90;;;;;;5051435;28;20106;-62
2022/10/12 09:52:22;;;;;;;13.05;5.72;;;13.30;99.90;;;;;;5051462;28;20059;-63
2022/10/12 09:54:52;;;;;;;11.88;5.32;;;13.40;99.90;;;;;;5050485;28;20052;-63
2022/10/12 09:57:21;;;;;;;10.13;5.47;;;13.50;99.90;;;;;;5051396;28;20068;-63
2022/10/12 09:59:47;;;;;;;14.23;5.13;;;13.40;99.90;;;;;;5051353;28;20072;-63
2022/10/12 10:02:16;;;;;;;10.93;5.25;;;13.50;99.90;;;;;;5050586;28;20459;-63
2022/10/12 10:04:43;;;;;;;11.52;5.75;;;13.60;99.90;;;;;;5051479;28;20155;-64
2022/10/12 10:07:17;;;;;;;9.88;5.03;;;13.60;99.90;;;;;;5052588;28;20033;-64
2022/10/12 10:09:43;;;;;;;11.00;5.55;;;13.70;99.90;;;;;;5053784;28;20053;-62
2022/10/12 10:12:23;;;;;;;12.82;5.30;;;13.80;99.90;;;;;;5050566;28;20048;-61
2022/10/12 10:14:50;;;;;;;13.18;5.40;;;13.90;99.90;;;;;;5050357;28;20439;-63
2022/10/12 10:17:28;;;;;;;9.63;4.43;;;13.90;99.90;;;;;;5049413;28;20075;-63
2022/10/12 10:19:55;;;;;;;11.80;4.97;;;14.00;99.90;;;;;;5050000;28;20043;-63
2022/10/12 10:22:22;;;;;;;11.05;4.80;;;14.10;99.90;;;;;;5049411;28;20036;-62
2022/10/12 10:24:57;;;;;;;10.55;5.03;;;14.10;99.90;;;;;;5048898;28;20068;-62
2022/10/12 10:27:28;;;;;;;12.07;4.85;;;14.10;99.90;;;;;;5048376;28;20048;-62
2022/10/12 10:30:07;;;;;;;11.30;4.70;;;14.20;99.90;;;;;;5049304;28;20116;-62
2022/10/12 10:32:33;;;;;;;12.25;4.30;;;14.30;99.90;;;;;;5049646;28;20240;-63
2022/10/12 10:35:20;;;;;;;11.35;4.22;;;14.20;99.90;;;;;;5055195;28;20059;-63
2022/10/12 10:38:06;;;;;;;11.90;4.20;;;14.20;99.90;;;;;;5056014;28;20047;-62
2022/10/12 10:40:55;;;;;;;9.68;4.13;;;14.30;99.90;;;;;;5056518;28;20067;-62
2022/10/12 10:43:45;;;;;;;12.07;4.55;;;14.20;99.90;;;;;;5055734;28;20450;-63
2022/10/12 10:46:34;;;;;;;10.63;4.07;;;14.40;99.90;;;;;;5056055;28;20647;-62
2022/10/12 10:49:09;;;;;;;11.93;4.60;;;14.40;99.90;;;;;;5055072;28;20382;-62
2022/10/12 10:51:43;;;;;;;13.38;5.32;;;14.40;99.90;;;;;;5035590;28;20042;-63
2022/10/12 10:54:24;;;;;;;10.30;4.25;;;14.50;99.90;;;;;;5055135;28;20045;-63
2022/10/12 10:56:55;;;;;;;10.95;4.53;;;14.50;99.90;;;;;;5054957;28;20052;-62
2022/10/12 10:59:43;;;;;;;9.05;4.63;;;14.60;99.90;;;;;;5056326;28;20052;-62
2022/10/12 11:02:33;;;;;;;10.77;4.00;;;14.60;99.90;;;;;;5056058;28;20048;-63
2022/10/12 11:05:09;;;;;;;10.32;4.30;;;14.70;99.90;;;;;;5055501;28;20102;-63
2022/10/12 11:07:41;;;;;;;8.75;4.00;;;14.70;99.90;;;;;;5054991;28;20052;-63
2022/10/12 11:10:20;;;;;;;9.23;4.18;;;14.80;99.90;;;;;;5056714;28;20339;-62
2022/10/12 11:12:50;;;;;;;10.35;4.45;;;14.80;99.90;;;;;;5056097;28;20116;-63
2022/10/12 11:15:22;;;;;;;11.23;4.15;;;14.80;99.90;;;;;;5056444;28;20045;-63
2022/10/12 11:17:54;;;;;;;9.70;4.45;;;14.90;99.90;;;;;;5046417;28;20033;-62
2022/10/12 11:20:44;;;;;;;10.35;3.70;;;14.90;99.90;;;;;;5056278;28;20045;-64
2022/10/12 11:23:28;;;;;;;10.38;4.00;;;15.00;99.90;;;;;;5055524;28;20025;-64
2022/10/12 11:26:20;;;;;;;10.15;3.90;;;15.00;99.90;;;;;;5055958;28;20029;-63
2022/10/12 11:28:48;;;;;;;10.50;3.65;;;15.00;99.90;;;;;;5055547;28;20045;-63
2022/10/12 11:31:18;;;;;;;10.40;3.40;;;15.00;99.90;;;;;;5056060;28;20037;-62
2022/10/12 11:33:46;;;;;;;8.95;3.63;;;15.00;99.90;;;;;;5055467;28;20692;-62
2022/10/12 11:36:19;;;;;;;7.95;3.17;;;15.10;99.90;;;;;;5054610;28;20032;-63
2022/10/12 11:38:55;;;;;;;9.48;4.13;;;15.10;99.90;;;;;;5051888;28;20052;-63
2022/10/12 11:41:45;;;;;;;9.68;4.10;;;15.10;99.90;;;;;;5054331;28;20409;-63
2022/10/12 11:44:28;;;;;;;10.23;3.85;;;15.10;99.90;;;;;;5054011;28;20428;-63
2022/10/12 11:47:20;;;;;;;9.32;3.95;;;15.10;99.90;;;;;;5051823;28;20097;-62
2022/10/12 11:49:55;;;;;;;9.48;4.07;;;15.20;99.90;;;;;;5048344;28;20052;-62
2022/10/12 11:52:22;;;;;;;10.02;4.35;;;15.20;99.90;;;;;;5052630;28;20033;-62
2022/10/12 11:55:15;;;;;;;9.52;4.28;;;15.20;99.90;;;;;;5052836;28;20087;-61
2022/10/12 11:57:41;;;;;;;7.80;4.03;;;15.20;99.90;;;;;;5045683;28;20037;-61
2022/10/12 12:00:22;;;;;;;11.82;4.50;;;15.20;99.90;;;;;;5052622;28;20091;-62
2022/10/12 12:03:09;;;;;;;10.85;4.68;;;15.20;99.90;;;;;;5052740;28;20358;-62
2022/10/12 12:05:34;;;;;;;13.00;4.50;;;15.20;99.90;;;;;;5051244;28;20037;-63
2022/10/12 12:08:00;;;;;;;10.73;4.57;;;15.20;99.90;;;;;;5051311;28;20051;-61
2022/10/12 12:10:33;;;;;;;11.35;5.22;;;15.20;99.90;;;;;;5052340;28;20040;-62
2022/10/12 12:13:11;;;;;;;10.20;5.00;;;15.20;99.90;;;;;;5051149;28;20101;-62
2022/10/12 12:15:46;;;;;;;11.55;4.50;;;15.20;99.90;;;;;;5048296;28;20037;-62
2022/10/12 12:18:20;;;;;;;14.93;5.00;;;15.10;99.90;;;;;;5052457;28;20079;-62
2022/10/12 12:20:46;;;;;;;13.13;5.28;;;15.10;99.90;;;;;;5050142;28;20070;-63
2022/10/12 12:23:25;;;;;;;12.20;5.22;;;15.10;99.90;;;;;;5052053;28;20118;-63
2022/10/12 12:26:32;;;;;;;11.80;5.13;;;15.20;99.90;;;;;;5049689;28;20033;-63
2022/10/12 12:29:18;;;;;;;12.13;5.25;;;15.20;99.90;;;;;;5035352;28;20057;-63
2022/10/12 12:31:55;;;;;;;12.52;5.20;;;15.10;99.90;;;;;;5051929;28;20037;-63
2022/10/12 12:34:21;;;;;;;15.07;5.75;;;15.20;99.90;;;;;;5049773;28;20108;-61
2022/10/12 12:36:50;;;;;;;12.20;5.45;;;15.10;99.90;;;;;;5051584;28;20404;-62
2022/10/12 12:39:34;;;;;;;15.90;6.03;;;15.10;99.90;;;;;;5044022;28;20068;-62
2022/10/12 12:42:07;;;;;;;;;;;15.10;99.90;;;;;;5038690;28;20064;-62
2022/10/12 12:44:33;;;;;;;12.32;5.22;;;15.10;99.90;;;;;;5051994;28;19963;-63
2022/10/12 12:47:01;;;;;;;17.77;6.32;;;15.10;99.90;;;;;;5051612;28;20083;-62
2022/10/12 12:49:45;;;;;;;12.30;6.03;;;15.10;99.90;;;;;;5051839;28;20037;-62
2022/10/12 12:52:27;;;;;;;15.43;5.93;;;15.10;99.90;;;;;;5051519;28;20127;-62
2022/10/12 12:55:03;;;;;;;13.40;6.18;;;15.10;99.90;;;;;;5051808;28;20036;-61
2022/10/12 12:58:03;;;;;;;11.30;5.63;;;15.10;99.90;;;;;;5051152;28;20320;-61
2022/10/12 13:00:38;;;;;;;10.00;5.55;;;15.20;99.90;;;;;;5051824;28;20346;-62
2022/10/12 13:03:42;;;;;;;11.05;4.47;;;15.20;99.90;;;;;;5051288;28;20041;-63